Time;durP1;ratioP1;P1;durP2;ratioP2;P2;SDS_P1;SDS_P2;PMS_P1;PMS_P2;Temp;Humidity;BMP_temperature;BMP_pressure;BME280_temperature;BME280_humidity;BME280_pressure;Samples;Min_cycle;Max_cycle;Signal;HPM_P1;HPM_P2
2023/03/05 00:00:02;;;;;;;11.00;3.10;;;3.50;99.90;;;;;;4918482;29;20468;-72
2023/03/05 00:02:40;;;;;;;7.47;2.87;;;3.50;99.90;;;;;;4918209;29;20464;-72
2023/03/05 00:05:09;;;;;;;11.23;3.90;;;3.50;99.90;;;;;;4916939;29;20456;-72
2023/03/05 00:07:37;;;;;;;10.10;3.30;;;3.50;99.90;;;;;;4916854;29;20449;-73
2023/03/05 00:10:07;;;;;;;10.80;3.80;;;3.60;99.90;;;;;;4917646;29;20436;-73
2023/03/05 00:12:36;;;;;;;11.57;3.43;;;3.50;99.90;;;;;;4917853;29;20471;-72
2023/03/05 00:15:05;;;;;;;11.80;3.23;;;3.50;99.90;;;;;;4918100;29;20440;-73
2023/03/05 00:17:33;;;;;;;7.27;2.77;;;3.50;99.90;;;;;;4918066;29;20879;-73
2023/03/05 00:20:01;;;;;;;9.23;3.17;;;3.50;99.90;;;;;;4918152;29;20479;-73
2023/03/05 00:22:29;;;;;;;11.73;4.17;;;3.50;99.90;;;;;;4917988;29;20985;-73
2023/03/05 00:24:57;;;;;;;6.23;2.40;;;3.50;99.90;;;;;;4916888;29;20549;-73
2023/03/05 00:27:26;;;;;;;7.80;3.40;;;3.50;99.90;;;;;;4918260;29;20864;-73
2023/03/05 00:29:55;;;;;;;8.90;3.90;;;3.50;99.90;;;;;;4918092;29;20444;-73
2023/03/05 00:32:23;;;;;;;11.17;3.27;;;3.50;99.90;;;;;;4917684;29;20460;-73
2023/03/05 00:34:52;;;;;;;6.70;2.90;;;3.50;99.90;;;;;;4917675;29;20444;-73
2023/03/05 00:37:20;;;;;;;6.83;2.83;;;3.50;99.90;;;;;;4916396;29;20966;-73
2023/03/05 00:39:48;;;;;;;6.57;2.80;;;3.50;99.90;;;;;;4917187;29;20479;-73
2023/03/05 00:42:16;;;;;;;8.97;3.10;;;3.50;99.90;;;;;;4916251;29;21006;-73
2023/03/05 00:44:44;;;;;;;12.30;2.80;;;3.50;99.90;;;;;;4916358;29;20457;-73
2023/03/05 00:47:17;;;;;;;8.90;2.63;;;3.50;99.90;;;;;;4916229;29;20982;-73
2023/03/05 00:49:45;;;;;;;9.53;3.37;;;3.50;99.90;;;;;;4916283;29;20452;-73
2023/03/05 00:52:14;;;;;;;6.27;3.10;;;3.50;99.90;;;;;;4917647;29;20460;-73
2023/03/05 00:54:42;;;;;;;7.33;3.53;;;3.50;99.90;;;;;;4917389;29;20463;-73
2023/03/05 00:57:10;;;;;;;6.47;2.40;;;3.50;99.90;;;;;;4916170;29;20445;-73
2023/03/05 00:59:39;;;;;;;7.47;2.90;;;3.50;99.90;;;;;;4916048;29;20480;-73
2023/03/05 01:02:07;;;;;;;8.93;2.97;;;3.50;99.90;;;;;;4916009;29;20957;-73
2023/03/05 01:04:38;;;;;;;7.83;2.67;;;3.50;99.90;;;;;;4916037;29;20459;-73
2023/03/05 01:07:06;;;;;;;7.80;2.80;;;3.50;99.90;;;;;;4916050;29;20448;-73
2023/03/05 01:09:34;;;;;;;6.43;2.50;;;3.50;99.90;;;;;;4916041;29;20456;-73
2023/03/05 01:12:02;;;;;;;7.10;3.00;;;3.50;99.90;;;;;;4915935;29;20471;-73
2023/03/05 01:14:31;;;;;;;6.50;2.70;;;3.50;99.90;;;;;;4916026;29;20501;-73
2023/03/05 01:16:59;;;;;;;6.93;3.30;;;3.50;99.90;;;;;;4915930;29;20456;-74
2023/03/05 01:19:27;;;;;;;10.67;3.20;;;3.40;99.90;;;;;;4916194;29;20815;-73
2023/03/05 01:21:56;;;;;;;8.90;3.53;;;3.40;99.90;;;;;;4919230;29;20868;-73
2023/03/05 01:24:25;;;;;;;10.17;3.07;;;3.40;99.90;;;;;;4922668;29;20464;-73
2023/03/05 01:26:53;;;;;;;7.10;3.40;;;3.40;99.90;;;;;;4923951;29;20973;-73
2023/03/05 01:29:21;;;;;;;7.63;3.23;;;3.40;99.90;;;;;;4922865;29;20461;-73
2023/03/05 01:31:49;;;;;;;7.13;3.73;;;3.40;99.90;;;;;;4922451;29;20510;-73
2023/03/05 01:34:17;;;;;;;6.50;2.90;;;3.40;99.90;;;;;;4923812;29;20440;-73
2023/03/05 01:36:45;;;;;;;5.80;3.63;;;3.40;99.90;;;;;;4929134;29;20455;-74
2023/03/05 01:39:15;;;;;;;6.60;3.97;;;3.40;99.90;;;;;;4927486;29;20455;-73
2023/03/05 01:41:43;;;;;;;7.73;3.73;;;3.40;99.90;;;;;;4926783;29;20481;-73
2023/03/05 01:44:21;;;;;;;6.90;3.50;;;3.30;99.90;;;;;;4927461;29;20455;-73
2023/03/05 01:46:50;;;;;;;7.00;3.83;;;3.30;99.90;;;;;;4923880;29;20448;-73
2023/03/05 01:49:22;;;;;;;9.63;4.20;;;3.30;99.90;;;;;;4924339;29;20459;-73
2023/03/05 01:52:06;;;;;;;8.10;4.00;;;3.30;99.90;;;;;;4922110;29;20528;-73
2023/03/05 01:54:39;;;;;;;6.13;3.57;;;3.30;99.90;;;;;;4923479;29;20432;-73
2023/03/05 01:57:11;;;;;;;8.30;2.90;;;3.30;99.90;;;;;;4921928;29;20452;-73
2023/03/05 01:59:42;;;;;;;6.80;3.77;;;3.30;99.90;;;;;;4921966;29;20442;-73
2023/03/05 02:02:10;;;;;;;6.20;3.17;;;3.30;99.90;;;;;;4921840;29;20855;-73
2023/03/05 02:04:43;;;;;;;7.90;3.90;;;3.30;99.90;;;;;;4921816;29;21019;-73
2023/03/05 02:07:14;;;;;;;7.87;3.50;;;3.30;99.90;;;;;;4921892;29;20440;-73
2023/03/05 02:09:44;;;;;;;11.60;4.57;;;3.30;99.90;;;;;;4923053;29;20442;-73
2023/03/05 02:12:13;;;;;;;7.47;3.67;;;3.30;99.90;;;;;;4921696;29;20474;-73
2023/03/05 02:14:44;;;;;;;8.00;4.17;;;3.20;99.90;;;;;;4923022;29;20447;-73
2023/03/05 02:17:13;;;;;;;8.27;4.00;;;3.20;99.90;;;;;;4921633;29;20479;-73
2023/03/05 02:19:50;;;;;;;8.70;4.20;;;3.20;99.90;;;;;;4921675;29;20456;-74
2023/03/05 02:22:22;;;;;;;11.23;3.93;;;3.20;99.90;;;;;;4923237;29;20845;-74
2023/03/05 02:24:50;;;;;;;8.63;2.97;;;3.20;99.90;;;;;;4923113;29;20769;-73
2023/03/05 02:27:22;;;;;;;8.50;3.53;;;3.20;99.90;;;;;;4921899;29;20797;-73
2023/03/05 02:29:51;;;;;;;8.43;3.87;;;3.20;99.90;;;;;;4921670;29;20440;-73
2023/03/05 02:32:19;;;;;;;7.53;3.97;;;3.20;99.90;;;;;;4922738;29;20803;-72
2023/03/05 02:34:47;;;;;;;5.63;3.43;;;3.20;99.90;;;;;;4919097;29;20544;-73
2023/03/05 02:37:16;;;;;;;8.77;3.43;;;3.20;99.90;;;;;;4918548;29;20456;-73
2023/03/05 02:39:45;;;;;;;9.23;3.53;;;3.20;99.90;;;;;;4918501;29;20458;-73
2023/03/05 02:42:13;;;;;;;6.70;3.83;;;3.20;99.90;;;;;;4918302;29;20482;-73
2023/03/05 02:44:41;;;;;;;9.20;3.67;;;3.20;99.90;;;;;;4918649;29;20474;-73
2023/03/05 02:47:10;;;;;;;8.53;3.77;;;3.10;99.90;;;;;;4918381;29;20456;-73
2023/03/05 02:49:41;;;;;;;9.10;3.90;;;3.20;99.90;;;;;;4918442;29;21022;-73
2023/03/05 02:52:09;;;;;;;6.43;4.10;;;3.20;99.90;;;;;;4919618;29;20993;-73
2023/03/05 02:54:38;;;;;;;9.77;4.70;;;3.20;99.90;;;;;;4918248;29;20448;-73
2023/03/05 02:57:07;;;;;;;8.10;4.50;;;3.20;99.90;;;;;;4919461;29;20458;-73
2023/03/05 02:59:35;;;;;;;7.83;4.13;;;3.20;99.90;;;;;;4919671;29;20444;-73
2023/03/05 03:02:03;;;;;;;9.20;4.77;;;3.20;99.90;;;;;;4918012;29;20490;-73
2023/03/05 03:04:31;;;;;;;10.50;5.13;;;3.10;99.90;;;;;;4918129;29;20459;-73
2023/03/05 03:06:59;;;;;;;8.40;4.50;;;3.10;99.90;;;;;;4919335;29;20444;-73
2023/03/05 03:09:28;;;;;;;8.53;4.97;;;3.10;99.90;;;;;;4918177;29;20452;-73
2023/03/05 03:11:56;;;;;;;8.50;4.80;;;3.10;99.90;;;;;;4919456;29;20464;-73
2023/03/05 03:14:25;;;;;;;9.10;5.10;;;3.10;99.90;;;;;;4917899;29;20454;-73
2023/03/05 03:16:53;;;;;;;9.33;4.93;;;3.10;99.90;;;;;;4919011;29;20940;-73
2023/03/05 03:19:21;;;;;;;7.60;4.33;;;3.10;99.90;;;;;;4919116;29;20430;-72
2023/03/05 03:21:49;;;;;;;7.43;4.30;;;3.10;99.90;;;;;;4918944;29;20972;-73
2023/03/05 03:24:17;;;;;;;8.33;4.40;;;3.10;99.90;;;;;;4917824;29;20447;-72
2023/03/05 03:26:45;;;;;;;9.50;4.13;;;3.10;99.90;;;;;;4917701;29;20495;-73
2023/03/05 03:29:13;;;;;;;9.87;4.00;;;3.10;99.90;;;;;;4919168;29;20487;-73
2023/03/05 03:31:44;;;;;;;7.60;4.47;;;3.10;99.90;;;;;;4917510;29;20464;-73
2023/03/05 03:34:13;;;;;;;20.73;5.30;;;3.10;99.90;;;;;;4918411;29;20523;-73
2023/03/05 03:36:42;;;;;;;9.40;3.97;;;3.10;99.90;;;;;;4918730;29;20511;-73
2023/03/05 03:39:10;;;;;;;11.80;5.83;;;3.10;99.90;;;;;;4919024;29;20440;-73
2023/03/05 03:41:42;;;;;;;11.23;4.67;;;3.10;99.90;;;;;;4917369;29;20508;-73
2023/03/05 03:44:11;;;;;;;8.20;4.03;;;3.10;99.90;;;;;;4918870;29;20431;-73
2023/03/05 03:46:40;;;;;;;7.03;4.33;;;3.10;99.90;;;;;;4917263;29;20480;-73
2023/03/05 03:49:16;;;;;;;7.33;4.63;;;3.10;99.90;;;;;;4918539;29;20809;-73
2023/03/05 03:51:44;;;;;;;6.23;4.00;;;3.10;99.90;;;;;;4917195;29;20454;-73
2023/03/05 03:54:13;;;;;;;8.67;5.10;;;3.10;99.90;;;;;;4918395;29;20441;-73
2023/03/05 03:56:42;;;;;;;14.87;5.10;;;3.10;99.90;;;;;;4917118;29;20467;-73
2023/03/05 03:59:10;;;;;;;7.07;4.43;;;3.10;99.90;;;;;;4918378;29;20463;-72
2023/03/05 04:01:39;;;;;;;10.00;4.70;;;3.10;99.90;;;;;;4916983;29;20476;-72
2023/03/05 04:04:07;;;;;;;9.67;5.37;;;3.10;99.90;;;;;;4918246;29;20442;-73
2023/03/05 04:06:37;;;;;;;11.40;5.30;;;3.10;99.90;;;;;;4918453;29;20938;-72
2023/03/05 04:09:06;;;;;;;7.40;3.70;;;3.10;99.90;;;;;;4916917;29;20451;-73
2023/03/05 04:11:35;;;;;;;8.33;4.40;;;3.10;99.90;;;;;;4916902;29;20515;-73
2023/03/05 04:14:03;;;;;;;7.23;3.93;;;3.10;99.90;;;;;;4916766;29;20486;-73
2023/03/05 04:16:32;;;;;;;8.47;4.03;;;3.10;99.90;;;;;;4916757;29;20460;-73
2023/03/05 04:19:00;;;;;;;7.10;3.90;;;3.10;99.90;;;;;;4917845;29;20456;-73
2023/03/05 04:21:29;;;;;;;7.17;3.90;;;3.10;99.90;;;;;;4917771;29;21000;-73
2023/03/05 04:23:58;;;;;;;8.37;4.50;;;3.10;99.90;;;;;;4916605;29;20485;-73
2023/03/05 04:26:27;;;;;;;6.80;3.67;;;3.00;99.90;;;;;;4918330;29;20451;-73
2023/03/05 04:28:55;;;;;;;6.80;3.77;;;3.00;99.90;;;;;;4916565;29;20790;-73
2023/03/05 04:31:23;;;;;;;8.90;3.77;;;3.00;99.90;;;;;;4917736;29;20444;-73
2023/03/05 04:33:51;;;;;;;9.37;3.70;;;3.00;99.90;;;;;;4917946;29;20464;-73
2023/03/05 04:36:20;;;;;;;7.27;3.60;;;3.00;99.90;;;;;;4917677;29;20535;-73
2023/03/05 04:38:48;;;;;;;10.67;4.00;;;3.00;99.90;;;;;;4917591;29;20451;-73
2023/03/05 04:41:18;;;;;;;9.57;3.83;;;3.00;99.90;;;;;;4917570;29;20480;-73
2023/03/05 04:43:46;;;;;;;12.13;4.43;;;3.00;99.90;;;;;;4917563;29;20468;-73
2023/03/05 04:46:14;;;;;;;10.43;3.80;;;3.00;99.90;;;;;;4916280;29;20979;-73
2023/03/05 04:48:42;;;;;;;9.33;4.03;;;3.00;99.90;;;;;;4916183;29;20462;-73
2023/03/05 04:51:10;;;;;;;6.03;3.27;;;3.00;99.90;;;;;;4917485;29;20974;-73
2023/03/05 04:53:41;;;;;;;5.73;3.43;;;3.00;99.90;;;;;;4916114;29;20479;-73
2023/03/05 04:56:09;;;;;;;5.23;3.40;;;3.00;99.90;;;;;;4915818;29;20451;-73
2023/03/05 04:58:38;;;;;;;7.30;2.93;;;2.90;99.90;;;;;;4916018;29;20466;-73
2023/03/05 05:01:07;;;;;;;6.37;3.87;;;2.90;99.90;;;;;;4917328;29;20440;-73
2023/03/05 05:03:35;;;;;;;9.73;3.30;;;2.90;99.90;;;;;;4917184;29;20852;-73
2023/03/05 05:06:03;;;;;;;6.83;3.67;;;2.90;99.90;;;;;;4917481;29;20445;-73
2023/03/05 05:08:31;;;;;;;6.50;3.47;;;2.90;99.90;;;;;;4915982;29;20527;-73
2023/03/05 05:11:01;;;;;;;8.00;4.30;;;2.90;99.90;;;;;;4917323;29;20450;-73
2023/03/05 05:13:30;;;;;;;6.70;3.70;;;2.90;99.90;;;;;;4917363;29;20467;-73
2023/03/05 05:16:00;;;;;;;9.20;4.30;;;2.90;99.90;;;;;;4916210;29;20488;-73
2023/03/05 05:18:29;;;;;;;9.80;3.90;;;2.90;99.90;;;;;;4915817;29;21004;-73
2023/03/05 05:20:57;;;;;;;9.83;4.43;;;2.90;99.90;;;;;;4917063;29;20452;-73
2023/03/05 05:23:25;;;;;;;8.80;4.10;;;2.90;99.90;;;;;;4915728;29;20491;-73
2023/03/05 05:25:57;;;;;;;11.80;5.77;;;2.90;99.90;;;;;;4915835;29;20452;-72
2023/03/05 05:28:26;;;;;;;9.70;5.20;;;2.90;99.90;;;;;;4917025;29;20433;-73
2023/03/05 05:30:55;;;;;;;7.60;4.63;;;2.90;99.90;;;;;;4917338;29;20531;-73
2023/03/05 05:33:25;;;;;;;8.23;5.07;;;2.90;99.90;;;;;;4915763;29;20899;-73
2023/03/05 05:35:53;;;;;;;7.37;4.50;;;2.90;99.90;;;;;;4916996;29;20429;-73
2023/03/05 05:38:21;;;;;;;7.20;4.60;;;2.90;99.90;;;;;;4915818;29;20455;-73
2023/03/05 05:40:49;;;;;;;8.73;4.63;;;2.90;99.90;;;;;;4915956;29;20850;-73
2023/03/05 05:43:17;;;;;;;8.63;4.50;;;2.90;99.90;;;;;;4915602;29;20486;-73
2023/03/05 05:45:45;;;;;;;7.43;3.57;;;2.90;99.90;;;;;;4915675;29;20453;-73
2023/03/05 05:48:14;;;;;;;8.33;5.23;;;2.90;99.90;;;;;;4915596;29;20451;-73
2023/03/05 05:50:43;;;;;;;6.73;3.83;;;2.90;99.90;;;;;;4917072;29;20451;-73
2023/03/05 05:53:11;;;;;;;9.33;4.90;;;2.90;99.90;;;;;;4917455;29;20473;-73
2023/03/05 05:55:40;;;;;;;10.60;4.17;;;2.90;99.90;;;;;;4916766;29;20987;-73
2023/03/05 05:58:08;;;;;;;8.97;3.73;;;2.90;99.90;;;;;;4917083;29;20501;-73
2023/03/05 06:00:36;;;;;;;8.83;4.77;;;2.90;99.90;;;;;;4916754;29;20444;-73
2023/03/05 06:03:04;;;;;;;9.77;3.83;;;2.90;99.90;;;;;;4916733;29;20483;-73
2023/03/05 06:05:33;;;;;;;7.83;3.63;;;2.90;99.90;;;;;;4915506;29;20875;-73
2023/03/05 06:08:02;;;;;;;10.47;4.57;;;2.90;99.90;;;;;;4916891;29;20448;-73
2023/03/05 06:10:30;;;;;;;7.60;4.47;;;2.90;99.90;;;;;;4919917;29;20447;-73
2023/03/05 06:12:58;;;;;;;8.30;4.03;;;2.80;99.90;;;;;;4920146;29;20984;-73
2023/03/05 06:15:26;;;;;;;7.03;3.80;;;2.80;99.90;;;;;;4919005;29;20460;-73
2023/03/05 06:17:54;;;;;;;8.07;4.07;;;2.80;99.90;;;;;;4920025;29;20843;-73
2023/03/05 06:20:22;;;;;;;7.23;3.53;;;2.80;99.90;;;;;;4920401;29;21053;-73
2023/03/05 06:22:51;;;;;;;6.17;3.40;;;2.80;99.90;;;;;;4920422;29;20831;-73
2023/03/05 06:25:20;;;;;;;10.40;3.67;;;2.80;99.90;;;;;;4919987;29;20946;-73
2023/03/05 06:27:48;;;;;;;6.87;3.63;;;2.80;99.90;;;;;;4918751;29;20463;-73
2023/03/05 06:30:16;;;;;;;10.90;3.93;;;2.70;99.90;;;;;;4918704;29;20472;-73
2023/03/05 06:32:45;;;;;;;7.13;3.10;;;2.70;99.90;;;;;;4918598;29;20476;-73
2023/03/05 06:35:13;;;;;;;8.90;3.13;;;2.70;99.90;;;;;;4920164;29;20456;-73
2023/03/05 06:37:41;;;;;;;10.50;3.80;;;2.70;99.90;;;;;;4918560;29;20452;-73
2023/03/05 06:40:12;;;;;;;6.90;3.70;;;2.70;99.90;;;;;;4919860;29;20470;-73
2023/03/05 06:42:41;;;;;;;9.00;3.33;;;2.70;99.90;;;;;;4919608;29;20562;-73
2023/03/05 06:45:13;;;;;;;9.83;3.93;;;2.70;99.90;;;;;;4919605;29;20442;-73
2023/03/05 06:47:41;;;;;;;9.30;3.50;;;2.70;99.90;;;;;;4920040;29;20441;-73
2023/03/05 06:50:11;;;;;;;9.43;3.80;;;2.70;99.90;;;;;;4918378;29;20460;-73
2023/03/05 06:52:40;;;;;;;7.13;3.60;;;2.70;99.90;;;;;;4919746;29;20507;-73
2023/03/05 06:55:09;;;;;;;8.60;3.90;;;3.00;99.90;;;;;;4918283;29;20455;-73
2023/03/05 06:57:37;;;;;;;7.30;3.47;;;2.70;99.90;;;;;;4919797;29;20549;-73
2023/03/05 07:00:09;;;;;;;8.93;3.67;;;2.80;99.90;;;;;;4918157;29;20449;-73
2023/03/05 07:02:37;;;;;;;6.33;3.30;;;2.80;99.90;;;;;;4919311;29;20513;-73
2023/03/05 07:05:07;;;;;;;7.70;2.80;;;2.80;99.90;;;;;;4919359;29;20526;-74
2023/03/05 07:07:35;;;;;;;9.70;3.63;;;2.80;99.90;;;;;;4919311;29;20483;-74
2023/03/05 07:10:06;;;;;;;5.80;2.43;;;2.80;99.90;;;;;;4919292;29;20446;-74
2023/03/05 07:12:34;;;;;;;5.00;3.30;;;2.80;99.90;;;;;;4917937;29;20482;-74
2023/03/05 07:15:02;;;;;;;7.57;2.87;;;2.80;99.90;;;;;;4917864;29;20463;-75
2023/03/05 07:17:31;;;;;;;7.10;2.93;;;2.90;99.90;;;;;;4919163;29;20452;-74
2023/03/05 07:20:00;;;;;;;5.87;2.70;;;2.90;99.90;;;;;;4917354;29;20455;-74
2023/03/05 07:22:28;;;;;;;6.90;2.70;;;2.90;99.90;;;;;;4918918;29;20472;-74
2023/03/05 07:24:56;;;;;;;8.13;2.50;;;3.00;99.90;;;;;;4917745;29;20841;-74
2023/03/05 07:27:24;;;;;;;5.77;2.87;;;2.90;99.90;;;;;;4918950;29;20451;-74
2023/03/05 07:29:52;;;;;;;10.63;4.03;;;2.90;99.90;;;;;;4917658;29;20531;-75
2023/03/05 07:32:20;;;;;;;4.80;3.07;;;3.00;99.90;;;;;;4918832;29;21012;-75
2023/03/05 07:34:50;;;;;;;5.77;3.23;;;3.00;99.90;;;;;;4918686;29;20440;-74
2023/03/05 07:37:19;;;;;;;7.00;3.00;;;3.00;99.90;;;;;;4917442;29;20793;-74
2023/03/05 07:39:47;;;;;;;5.87;4.13;;;3.00;99.90;;;;;;4917484;29;20460;-74
2023/03/05 07:42:16;;;;;;;7.03;3.00;;;3.00;99.90;;;;;;4917440;29;20473;-75
2023/03/05 07:44:53;;;;;;;6.90;3.57;;;3.00;99.90;;;;;;4917326;29;20472;-74
2023/03/05 07:47:22;;;;;;;11.70;3.40;;;3.00;99.90;;;;;;4917239;29;20459;-75
2023/03/05 07:49:52;;;;;;;8.13;4.00;;;3.00;99.90;;;;;;4918894;29;20443;-75
2023/03/05 07:52:20;;;;;;;5.07;3.53;;;3.00;99.90;;;;;;4920082;29;20468;-74
2023/03/05 07:54:49;;;;;;;6.63;3.87;;;3.10;99.90;;;;;;4921586;29;20452;-74
2023/03/05 07:57:17;;;;;;;6.93;3.10;;;3.10;99.90;;;;;;4919975;29;20448;-74
2023/03/05 07:59:45;;;;;;;6.60;2.90;;;3.10;99.90;;;;;;4920341;29;20519;-74
2023/03/05 08:02:14;;;;;;;6.10;3.50;;;3.20;99.90;;;;;;4921535;29;20489;-74
2023/03/05 08:04:42;;;;;;;7.53;3.40;;;3.20;99.90;;;;;;4919236;29;20476;-75
2023/03/05 08:07:14;;;;;;;6.70;3.47;;;3.20;99.90;;;;;;4918673;29;20848;-74
2023/03/05 08:09:42;;;;;;;8.37;2.63;;;3.20;99.90;;;;;;4917603;29;21018;-74
2023/03/05 08:12:11;;;;;;;7.13;3.00;;;3.20;99.90;;;;;;4916837;29;21008;-74
2023/03/05 08:14:39;;;;;;;5.50;3.17;;;3.20;99.90;;;;;;4917002;29;20454;-74
2023/03/05 08:17:07;;;;;;;7.30;3.00;;;3.20;99.90;;;;;;4916796;29;20460;-74
2023/03/05 08:19:35;;;;;;;7.30;3.03;;;3.20;99.90;;;;;;4918001;29;20463;-74
2023/03/05 08:22:03;;;;;;;6.53;3.20;;;3.30;99.90;;;;;;4918139;29;20873;-74
2023/03/05 08:24:33;;;;;;;5.50;2.70;;;3.30;99.90;;;;;;4916584;29;20833;-74
2023/03/05 08:27:01;;;;;;;7.00;2.80;;;3.40;99.90;;;;;;4916557;29;20457;-74
2023/03/05 08:29:29;;;;;;;4.57;2.50;;;3.40;99.90;;;;;;4916545;29;20477;-74
2023/03/05 08:31:57;;;;;;;5.73;2.67;;;3.40;99.90;;;;;;4916930;29;20450;-74
2023/03/05 08:34:25;;;;;;;5.90;2.77;;;3.50;99.90;;;;;;4916697;29;20546;-74
2023/03/05 08:36:53;;;;;;;5.90;2.40;;;3.60;99.90;;;;;;4917699;29;20527;-74
2023/03/05 08:39:22;;;;;;;5.50;2.30;;;3.60;99.90;;;;;;4916403;29;20459;-74
2023/03/05 08:41:51;;;;;;;6.77;2.33;;;3.70;99.90;;;;;;4917816;29;20791;-74
2023/03/05 08:44:19;;;;;;;8.67;2.20;;;3.70;99.90;;;;;;4916226;29;20821;-74
2023/03/05 08:46:47;;;;;;;6.97;2.07;;;3.80;99.90;;;;;;4917607;29;20444;-74
2023/03/05 08:49:15;;;;;;;6.43;2.43;;;3.80;99.90;;;;;;4917837;29;20444;-74
2023/03/05 08:51:43;;;;;;;6.80;2.60;;;3.80;99.90;;;;;;4917366;29;20968;-74
2023/03/05 08:54:12;;;;;;;6.20;2.73;;;3.80;99.90;;;;;;4917533;29;20808;-73
2023/03/05 08:56:40;;;;;;;9.90;3.50;;;3.90;99.90;;;;;;4917459;29;20447;-74
2023/03/05 08:59:10;;;;;;;7.93;2.77;;;3.90;99.90;;;;;;4916209;29;20455;-74
2023/03/05 09:01:40;;;;;;;6.53;3.00;;;4.00;99.90;;;;;;4917373;29;20484;-74
2023/03/05 09:04:09;;;;;;;5.60;2.70;;;4.00;99.90;;;;;;4917264;29;20528;-74
2023/03/05 09:06:39;;;;;;;6.93;2.73;;;4.00;99.90;;;;;;4917227;29;20447;-74
2023/03/05 09:09:08;;;;;;;7.43;2.53;;;4.00;99.90;;;;;;4917264;29;20440;-73
2023/03/05 09:11:37;;;;;;;5.77;2.50;;;4.10;99.90;;;;;;4916051;29;20448;-74
2023/03/05 09:14:06;;;;;;;5.37;2.30;;;4.10;99.90;;;;;;4915894;29;21016;-74
2023/03/05 09:16:37;;;;;;;6.60;2.70;;;4.10;99.90;;;;;;4917061;29;20942;-74
2023/03/05 09:19:07;;;;;;;7.70;2.80;;;4.20;99.90;;;;;;4917483;29;20516;-73
2023/03/05 09:21:36;;;;;;;6.87;2.27;;;4.20;99.90;;;;;;4916149;29;20451;-74
2023/03/05 09:24:04;;;;;;;9.30;2.17;;;4.20;99.90;;;;;;4916965;29;20899;-73
2023/03/05 09:30:33;;;;;;;7.43;2.00;;;4.20;99.90;;;;;;4880346;29;20465;-74
2023/03/05 09:33:14;;;;;;;5.73;2.57;;;4.20;99.90;;;;;;4878103;29;20581;-73
2023/03/05 09:35:43;;;;;;;8.37;2.30;;;4.10;99.90;;;;;;4879728;29;20446;-73
2023/03/05 09:38:11;;;;;;;5.57;2.70;;;4.10;99.90;;;;;;4879402;29;20449;-74
2023/03/05 09:40:48;;;;;;;6.57;2.37;;;4.10;99.90;;;;;;4878141;29;20465;-73
2023/03/05 09:43:29;;;;;;;5.73;2.20;;;4.20;99.90;;;;;;4879665;29;20472;-73
2023/03/05 09:46:09;;;;;;;4.80;2.03;;;4.20;99.90;;;;;;4883191;29;20461;-73
2023/03/05 09:48:51;;;;;;;5.17;1.97;;;4.30;99.90;;;;;;4883138;29;20912;-73
2023/03/05 09:51:24;;;;;;;5.60;2.30;;;4.30;99.90;;;;;;4881865;29;20873;-73
2023/03/05 09:54:00;;;;;;;6.03;1.70;;;4.30;99.90;;;;;;4881781;29;20478;-73
2023/03/05 09:56:34;;;;;;;4.37;1.40;;;4.40;99.90;;;;;;4883463;29;20441;-73
2023/03/05 09:59:13;;;;;;;7.83;1.60;;;4.40;99.90;;;;;;4882954;29;20522;-73
2023/03/05 10:01:44;;;;;;;6.40;1.93;;;4.50;99.90;;;;;;4883222;29;20426;-73
2023/03/05 10:04:16;;;;;;;4.00;1.63;;;4.50;99.90;;;;;;4883359;29;20426;-73
2023/03/05 10:06:50;;;;;;;5.27;1.67;;;4.60;99.90;;;;;;4882903;29;20525;-73
2023/03/05 10:09:31;;;;;;;5.50;2.30;;;4.60;99.90;;;;;;4882952;29;20770;-73
2023/03/05 10:12:03;;;;;;;3.90;2.20;;;4.70;99.90;;;;;;4881443;29;20450;-73
2023/03/05 10:14:33;;;;;;;4.07;1.97;;;4.70;99.90;;;;;;4882842;29;20825;-73
2023/03/05 10:17:40;;;;;;;5.50;1.80;;;4.80;99.90;;;;;;4882893;29;20466;-73
2023/03/05 10:20:31;;;;;;;4.13;1.43;;;4.90;99.90;;;;;;4862382;29;20448;-73
2023/03/05 10:23:10;;;;;;;4.10;1.43;;;5.00;99.90;;;;;;4882630;29;20828;-73
2023/03/05 10:25:52;;;;;;;5.00;1.57;;;5.00;99.90;;;;;;4881176;29;20501;-73
2023/03/05 10:28:23;;;;;;;4.60;1.40;;;5.10;99.90;;;;;;4881258;29;20446;-73
2023/03/05 10:31:11;;;;;;;4.60;1.37;;;5.10;99.90;;;;;;4882956;29;20426;-73
2023/03/05 10:33:47;;;;;;;3.90;1.50;;;5.20;99.90;;;;;;4879130;29;20485;-73
2023/03/05 10:36:44;;;;;;;4.03;1.23;;;5.20;99.90;;;;;;4882374;29;20528;-73
2023/03/05 10:39:49;;;;;;;4.60;1.80;;;5.20;99.90;;;;;;4882531;29;20442;-73
2023/03/05 10:42:25;;;;;;;4.50;1.33;;;5.20;99.90;;;;;;4882179;29;20462;-73
2023/03/05 10:44:55;;;;;;;4.63;1.50;;;5.20;99.90;;;;;;4882412;29;20469;-73
2023/03/05 10:47:27;;;;;;;6.13;1.80;;;5.20;99.90;;;;;;4880970;29;20442;-73
2023/03/05 10:49:57;;;;;;;7.70;2.10;;;5.20;99.90;;;;;;4882183;29;20434;-73
2023/03/05 10:52:30;;;;;;;5.37;1.83;;;5.20;99.90;;;;;;4880763;29;20478;-73
2023/03/05 10:54:59;;;;;;;4.33;1.47;;;5.30;99.90;;;;;;4881457;29;20423;-73
2023/03/05 10:57:30;;;;;;;5.33;1.80;;;5.30;99.90;;;;;;4882080;29;20617;-72
2023/03/05 11:00:06;;;;;;;4.77;1.70;;;5.40;99.90;;;;;;4881945;29;20465;-72
2023/03/05 11:02:52;;;;;;;7.33;1.67;;;5.50;99.90;;;;;;4882088;29;20521;-72
2023/03/05 11:05:45;;;;;;;5.73;1.70;;;5.50;99.90;;;;;;4882197;29;20509;-73
2023/03/05 11:08:27;;;;;;;4.60;2.00;;;5.60;99.90;;;;;;4880838;29;20863;-73
2023/03/05 11:11:14;;;;;;;4.50;1.33;;;5.70;99.90;;;;;;4880513;29;20450;-73
2023/03/05 11:13:52;;;;;;;5.63;1.43;;;5.80;99.90;;;;;;4881665;29;21102;-73
2023/03/05 11:16:22;;;;;;;6.10;1.30;;;5.90;99.90;;;;;;4880414;29;20485;-73
2023/03/05 11:18:52;;;;;;;7.30;1.77;;;5.90;99.90;;;;;;4881570;29;20432;-73
2023/03/05 11:21:26;;;;;;;4.73;1.60;;;5.90;99.90;;;;;;4881574;29;20450;-73
2023/03/05 11:24:06;;;;;;;8.00;1.80;;;5.90;99.90;;;;;;4880302;29;20479;-73
2023/03/05 11:26:35;;;;;;;6.33;1.77;;;5.90;99.90;;;;;;4880098;29;20485;-73
2023/03/05 11:29:03;;;;;;;6.60;1.53;;;5.90;99.90;;;;;;4881416;29;20435;-73
2023/03/05 11:31:33;;;;;;;3.97;1.50;;;5.80;99.90;;;;;;4881554;29;20457;-73
2023/03/05 11:34:04;;;;;;;5.83;1.97;;;5.70;99.90;;;;;;4880503;29;20482;-73
2023/03/05 11:36:33;;;;;;;3.23;1.57;;;5.60;99.90;;;;;;4882003;29;20423;-73
2023/03/05 11:39:14;;;;;;;4.30;2.13;;;5.50;99.90;;;;;;4880229;29;20481;-73
2023/03/05 11:41:47;;;;;;;4.93;2.00;;;5.40;99.90;;;;;;4881224;29;20445;-74
2023/03/05 11:44:20;;;;;;;3.33;1.50;;;5.30;99.90;;;;;;4881219;29;20446;-73
2023/03/05 11:46:53;;;;;;;3.83;1.53;;;5.20;99.90;;;;;;4881241;29;20462;-73
2023/03/05 11:49:25;;;;;;;3.80;1.90;;;5.10;99.90;;;;;;4879790;29;20791;-73
2023/03/05 11:52:01;;;;;;;3.53;1.37;;;5.10;99.90;;;;;;4879751;29;20515;-74
2023/03/05 11:54:41;;;;;;;2.90;1.10;;;5.10;99.90;;;;;;4880974;29;20441;-73
2023/03/05 11:57:15;;;;;;;3.40;1.30;;;5.10;99.90;;;;;;4879732;29;21000;-74
2023/03/05 11:59:44;;;;;;;3.73;1.30;;;5.10;99.90;;;;;;4880882;29;20460;-74
2023/03/05 12:02:18;;;;;;;3.10;1.50;;;5.20;99.90;;;;;;4879523;29;20485;-74
2023/03/05 12:04:48;;;;;;;5.73;2.77;;;5.30;99.90;;;;;;4880848;29;20434;-74
2023/03/05 12:07:21;;;;;;;3.00;1.20;;;5.30;99.90;;;;;;4879349;29;20474;-74
2023/03/05 12:09:52;;;;;;;5.20;3.00;;;5.40;99.90;;;;;;4879584;29;20460;-74
2023/03/05 12:12:35;;;;;;;6.93;3.13;;;5.40;99.90;;;;;;4880002;29;20896;-74
2023/03/05 12:15:25;;;;;;;4.60;1.90;;;5.50;99.90;;;;;;4880625;29;20433;-74
2023/03/05 12:18:03;;;;;;;3.57;1.50;;;5.60;99.90;;;;;;4881135;29;20490;-73
2023/03/05 12:20:40;;;;;;;3.20;1.23;;;5.60;99.90;;;;;;4879255;29;20453;-73
2023/03/05 12:23:13;;;;;;;4.23;1.50;;;5.70;99.90;;;;;;4880425;29;20470;-74
2023/03/05 12:25:49;;;;;;;5.63;1.53;;;5.70;99.90;;;;;;4879093;29;20477;-74
2023/03/05 12:28:38;;;;;;;4.70;1.50;;;5.70;99.90;;;;;;4880914;29;20434;-74
2023/03/05 12:31:25;;;;;;;4.53;1.83;;;5.80;99.90;;;;;;4880189;29;20461;-74
2023/03/05 12:33:53;;;;;;;5.30;1.57;;;5.90;99.90;;;;;;4880267;29;20468;-74
2023/03/05 12:36:36;;;;;;;6.17;1.77;;;5.90;99.90;;;;;;4880197;29;20447;-75
2023/03/05 12:39:37;;;;;;;4.10;1.87;;;5.90;99.90;;;;;;4880481;29;20465;-75
2023/03/05 12:42:51;;;;;;;3.97;1.40;;;6.00;99.90;;;;;;4878800;29;20620;-73
2023/03/05 12:45:26;;;;;;;4.63;1.77;;;6.00;99.90;;;;;;4879148;29;20961;-73
2023/03/05 12:48:31;;;;;;;6.23;2.00;;;6.00;99.90;;;;;;4880242;29;20476;-73
2023/03/05 12:50:59;;;;;;;3.10;1.30;;;6.00;99.90;;;;;;4879987;29;20540;-73
2023/03/05 12:53:28;;;;;;;5.20;1.63;;;5.90;99.90;;;;;;4878556;29;21012;-73
2023/03/05 12:56:01;;;;;;;4.60;1.90;;;5.90;99.90;;;;;;4880125;29;20499;-73
2023/03/05 12:58:37;;;;;;;4.07;1.60;;;5.90;99.90;;;;;;4878699;29;20486;-73
2023/03/05 13:01:16;;;;;;;5.57;1.97;;;5.90;99.90;;;;;;4878598;29;20442;-74
2023/03/05 13:03:46;;;;;;;3.87;1.60;;;5.90;99.90;;;;;;4878517;29;20475;-74
2023/03/05 13:06:27;;;;;;;5.37;2.20;;;5.90;99.90;;;;;;4878481;29;20478;-74
2023/03/05 13:08:59;;;;;;;3.97;2.30;;;6.00;99.90;;;;;;4879763;29;20422;-74
2023/03/05 13:11:29;;;;;;;5.20;2.47;;;6.00;99.90;;;;;;4879687;29;20453;-74
2023/03/05 13:13:59;;;;;;;5.33;2.43;;;6.00;99.90;;;;;;4878240;29;20490;-74
2023/03/05 13:16:28;;;;;;;5.90;1.80;;;6.00;99.90;;;;;;4878405;29;20958;-74
2023/03/05 13:19:00;;;;;;;5.03;1.70;;;6.10;99.90;;;;;;4879426;29;20442;-74